Time;durP1;ratioP1;P1;durP2;ratioP2;P2;SDS_P1;SDS_P2;PMS_P1;PMS_P2;Temp;Humidity;BMP_temperature;BMP_pressure;BME280_temperature;BME280_humidity;BME280_pressure;Samples;Min_cycle;Max_cycle;Signal;HPM_P1;HPM_P2
2021/07/25 00:01:18;;;;;;;22.30;17.85;;;17.60;99.90;;;;;;6112411;23;20077;-91
2021/07/25 00:04:09;;;;;;;24.90;17.77;;;17.60;99.90;;;;;;6112677;23;20058;-90
2021/07/25 00:06:58;;;;;;;27.10;18.30;;;17.60;99.90;;;;;;6091268;23;20022;-90
2021/07/25 00:09:47;;;;;;;22.63;17.45;;;17.60;99.90;;;;;;6079179;23;20026;-91
2021/07/25 00:12:37;;;;;;;28.58;18.85;;;17.60;99.90;;;;;;6093640;23;20402;-91
2021/07/25 00:15:33;;;;;;;25.83;17.88;;;17.50;99.90;;;;;;6093573;23;20033;-91
2021/07/25 00:18:23;;;;;;;26.00;18.45;;;17.50;99.90;;;;;;6074919;23;20085;-87
2021/07/25 00:21:11;;;;;;;29.75;17.98;;;17.50;99.90;;;;;;6096121;23;20098;-89
2021/07/25 00:23:59;;;;;;;28.73;19.77;;;17.40;99.90;;;;;;6073989;23;20125;-90
2021/07/25 00:26:48;;;;;;;26.65;19.52;;;17.40;99.90;;;;;;6094574;23;20414;-89
2021/07/25 00:29:45;;;;;;;31.42;20.35;;;17.40;99.90;;;;;;6092886;23;20022;-88
2021/07/25 00:33:02;;;;;;;25.85;18.10;;;17.40;99.90;;;;;;6077128;23;20022;-90
2021/07/25 00:36:06;;;;;;;;;;;17.40;99.90;;;;;;6094469;23;20334;-90
2021/07/25 00:38:54;;;;;;;31.30;19.00;;;17.40;99.90;;;;;;6096640;23;19924;-90
2021/07/25 00:41:43;;;;;;;30.50;20.73;;;17.50;99.90;;;;;;6094281;23;20026;-88
2021/07/25 00:44:31;;;;;;;27.88;17.05;;;17.40;99.90;;;;;;6094716;23;20030;-89
2021/07/25 00:47:19;;;;;;;26.20;16.77;;;17.40;99.90;;;;;;6093090;23;20079;-92
2021/07/25 00:50:08;;;;;;;22.17;15.27;;;17.40;99.90;;;;;;6098120;23;20035;-88
2021/07/25 00:52:56;;;;;;;22.48;15.60;;;17.30;99.90;;;;;;6098960;23;20038;-88
2021/07/25 00:55:47;;;;;;;23.75;15.50;;;17.30;99.90;;;;;;6098632;23;20026;-91
2021/07/25 00:58:37;;;;;;;;;;;17.30;99.90;;;;;;6104128;23;20027;-88
2021/07/25 01:01:39;;;;;;;22.33;17.55;;;17.30;99.90;;;;;;6104699;23;19928;-89
2021/07/25 01:05:15;;;;;;;25.70;18.25;;;17.30;99.90;;;;;;6097329;23;20290;-91
2021/07/25 01:09:20;;;;;;;24.27;18.50;;;17.30;99.90;;;;;;5987287;23;20443;-90
2021/07/25 01:13:05;;;;;;;;;;;;;;;;;;;;;
2021/07/25 01:16:19;;;;;;;29.15;20.35;;;17.20;99.90;;;;;;6048248;23;20035;-92
2021/07/25 01:19:24;;;;;;;;;;;17.20;99.90;;;;;;6005872;23;20027;-89
2021/07/25 01:22:53;;;;;;;;;;;;;;;;;;;;;
2021/07/25 01:33:40;;;;;;;31.25;22.77;;;17.20;99.90;;;;;;5961053;23;20039;-91
2021/07/25 01:37:02;;;;;;;38.67;25.17;;;17.30;99.90;;;;;;6070247;23;20046;-92
2021/07/25 01:39:52;;;;;;;33.85;23.80;;;17.30;99.90;;;;;;6049395;23;20446;-91
2021/07/25 01:44:05;;;;;;;35.90;24.77;;;17.30;99.90;;;;;;6047712;23;20027;-91
2021/07/25 01:46:53;;;;;;;35.92;24.17;;;17.30;99.90;;;;;;6063463;23;20702;-91
2021/07/25 01:50:18;;;;;;;40.08;24.08;;;17.30;99.90;;;;;;6053524;23;20102;-90
2021/07/25 01:53:29;;;;;;;33.95;22.42;;;17.40;99.90;;;;;;6053217;23;20031;-90
2021/07/25 01:56:17;;;;;;;31.05;20.85;;;17.30;99.90;;;;;;6047722;23;20027;-88
2021/07/25 01:59:26;;;;;;;31.73;19.83;;;17.30;99.90;;;;;;6067112;23;20060;-89
2021/07/25 02:02:16;;;;;;;25.63;18.30;;;17.20;99.90;;;;;;6029446;23;20312;-89
2021/07/25 02:05:06;;;;;;;27.38;18.10;;;17.20;99.90;;;;;;6067520;23;20023;-89
2021/07/25 02:07:54;;;;;;;27.45;17.92;;;17.20;99.90;;;;;;6046362;23;20461;-90
2021/07/25 02:11:09;;;;;;;25.17;18.05;;;17.20;99.90;;;;;;6052607;23;20102;-89
2021/07/25 02:13:56;;;;;;;24.83;17.95;;;17.20;99.90;;;;;;6048762;23;20037;-89
2021/07/25 02:16:50;;;;;;;28.65;18.75;;;17.10;99.90;;;;;;6067697;23;20106;-89
2021/07/25 02:19:38;;;;;;;23.63;18.10;;;17.10;99.90;;;;;;6069168;23;20124;-89
2021/07/25 02:22:46;;;;;;;30.67;19.73;;;17.00;99.90;;;;;;6067889;23;20038;-91
2021/07/25 02:25:38;;;;;;;28.55;16.95;;;17.10;99.90;;;;;;6030524;23;20106;-88
2021/07/25 02:28:25;;;;;;;27.25;15.30;;;17.00;99.90;;;;;;6047035;23;20027;-89
2021/07/25 02:31:16;;;;;;;25.75;14.05;;;17.10;99.90;;;;;;6080427;23;20031;-90
2021/07/25 02:34:03;;;;;;;20.23;15.30;;;17.00;99.90;;;;;;6096568;23;20101;-89
2021/07/25 02:36:55;;;;;;;25.42;14.45;;;17.00;99.90;;;;;;6096294;23;20050;-90
2021/07/25 02:40:01;;;;;;;;;;;;;;;;;;;;;
2021/07/25 02:43:11;;;;;;;21.17;13.43;;;17.00;99.90;;;;;;6096282;23;20046;-92
2021/07/25 02:46:31;;;;;;;26.23;15.50;;;17.00;99.90;;;;;;6097345;23;20026;-92
2021/07/25 02:49:22;;;;;;;26.92;14.63;;;16.90;99.90;;;;;;6021886;23;20319;-89
2021/07/25 02:52:31;;;;;;;22.30;14.52;;;16.90;99.90;;;;;;6039275;23;20023;-93
2021/07/25 02:55:25;;;;;;;23.77;14.98;;;16.90;99.90;;;;;;6038487;23;20389;-85
2021/07/25 02:58:19;;;;;;;21.83;14.50;;;16.90;99.90;;;;;;6076286;23;20034;-90
2021/07/25 03:01:11;;;;;;;20.00;14.15;;;16.80;99.90;;;;;;6057292;23;20030;-88
2021/07/25 03:03:58;;;;;;;21.45;13.20;;;16.80;99.90;;;;;;6093832;23;20049;-89
2021/07/25 03:06:46;;;;;;;18.60;12.55;;;16.80;99.90;;;;;;6093981;23;20070;-89
2021/07/25 03:10:07;;;;;;;20.02;13.07;;;16.80;99.90;;;;;;6076922;23;20033;-90
2021/07/25 03:13:39;;;;;;;13.57;11.75;;;16.80;99.90;;;;;;6096110;23;20026;-90
2021/07/25 03:16:39;;;;;;;20.30;11.48;;;16.80;99.90;;;;;;6094783;23;20078;-89
2021/07/25 03:19:26;;;;;;;15.27;10.80;;;16.80;99.90;;;;;;6076325;23;20287;-89
2021/07/25 03:22:21;;;;;;;18.75;11.88;;;16.80;99.90;;;;;;6096584;23;20101;-88
2021/07/25 03:25:10;;;;;;;18.45;13.43;;;16.80;99.90;;;;;;6096249;23;20027;-88
2021/07/25 03:27:58;;;;;;;22.48;12.00;;;16.70;99.90;;;;;;6096087;23;20028;-90
2021/07/25 03:30:47;;;;;;;18.17;11.55;;;16.70;99.90;;;;;;6096249;23;20453;-91
2021/07/25 03:33:37;;;;;;;14.77;11.30;;;16.70;99.90;;;;;;6093391;23;20098;-92
2021/07/25 03:36:25;;;;;;;16.33;11.32;;;16.70;99.90;;;;;;6056302;23;20030;-90
2021/07/25 03:39:16;;;;;;;17.65;11.10;;;16.70;99.90;;;;;;6096699;23;20030;-89
2021/07/25 03:42:06;;;;;;;16.55;11.77;;;16.70;99.90;;;;;;6094993;23;20109;-91
2021/07/25 03:44:54;;;;;;;18.25;12.82;;;16.70;99.90;;;;;;6094391;23;20050;-92
2021/07/25 03:47:42;;;;;;;21.63;11.90;;;16.70;99.90;;;;;;6073878;23;20038;-89
2021/07/25 03:50:34;;;;;;;18.98;12.32;;;16.60;99.90;;;;;;6096759;23;20387;-91
2021/07/25 03:53:29;;;;;;;17.08;12.60;;;16.60;99.90;;;;;;6077307;23;20118;-90
2021/07/25 03:56:19;;;;;;;19.00;12.48;;;16.50;99.90;;;;;;6093261;23;20022;-90
2021/07/25 03:59:09;;;;;;;25.10;13.63;;;16.60;99.90;;;;;;6095996;23;20430;-90
2021/07/25 04:01:59;;;;;;;21.15;13.50;;;16.50;99.90;;;;;;6097258;23;20042;-89
2021/07/25 04:04:48;;;;;;;18.23;14.00;;;16.50;99.90;;;;;;6098993;23;20030;-91
2021/07/25 04:07:37;;;;;;;19.23;12.90;;;16.40;99.90;;;;;;6084173;23;20036;-89
2021/07/25 04:10:30;;;;;;;22.05;13.20;;;16.40;99.90;;;;;;6094134;23;20430;-92
2021/07/25 04:13:26;;;;;;;19.27;12.02;;;16.40;99.90;;;;;;6093841;23;20026;-90
2021/07/25 04:16:50;;;;;;;20.77;12.50;;;16.40;99.90;;;;;;6094916;23;20450;-89
2021/07/25 04:19:41;;;;;;;18.42;13.18;;;16.30;99.90;;;;;;6100367;23;20078;-92
2021/07/25 04:22:55;;;;;;;21.30;13.00;;;16.20;99.90;;;;;;6100346;23;20022;-90
2021/07/25 04:25:48;;;;;;;28.02;14.18;;;16.10;99.90;;;;;;6095429;23;20115;-91
2021/07/25 04:28:40;;;;;;;20.73;13.63;;;16.00;99.90;;;;;;6057780;23;20026;-91
2021/07/25 04:31:32;;;;;;;21.27;13.63;;;16.10;99.90;;;;;;6096223;23;20026;-91
2021/07/25 04:35:23;;;;;;;24.35;14.60;;;16.10;99.90;;;;;;6077750;23;20086;-91
2021/07/25 04:38:37;;;;;;;31.27;14.25;;;16.10;99.90;;;;;;5994988;23;20091;-91
2021/07/25 04:42:20;;;;;;;20.33;15.05;;;16.10;99.90;;;;;;5899373;24;20179;-91
2021/07/25 04:54:06;;;;;;;;;;;;;;;;;;;;;
2021/07/25 05:16:14;;;;;;;28.30;14.02;;;16.70;99.90;;;;;;5111235;27;20395;-89
2021/07/25 05:19:38;;;;;;;19.23;11.63;;;16.80;99.90;;;;;;5083916;28;20454;-91
2021/07/25 05:23:32;;;;;;;;;;;;;;;;;;;;;
2021/07/25 05:26:44;;;;;;;;;;;16.90;99.90;;;;;;5076803;28;20044;-90
2021/07/25 05:30:42;;;;;;;16.58;11.05;;;16.90;99.90;;;;;;5022065;28;19932;-90
2021/07/25 05:34:21;;;;;;;13.82;9.63;;;17.00;99.90;;;;;;5014333;28;20370;-90
2021/07/25 05:37:11;;;;;;;18.50;8.80;;;17.00;99.90;;;;;;5027020;28;20045;-91
2021/07/25 05:40:02;;;;;;;16.20;8.77;;;17.10;99.90;;;;;;5005902;28;20058;-89
2021/07/25 05:43:10;;;;;;;12.88;8.57;;;17.20;99.90;;;;;;5005669;28;20195;-88
2021/07/25 05:46:04;;;;;;;16.40;8.15;;;17.30;99.90;;;;;;5056363;28;20374;-88
2021/07/25 05:48:54;;;;;;;11.30;8.23;;;17.50;99.90;;;;;;5119325;28;20476;-90
2021/07/25 05:52:50;;;;;;;;;;;;;;;;;;;;;
2021/07/25 05:55:53;;;;;;;10.63;7.50;;;17.80;99.90;;;;;;5018270;28;20046;-90
2021/07/25 05:58:40;;;;;;;14.85;6.57;;;17.90;99.90;;;;;;5051663;28;20055;-88
2021/07/25 06:01:43;;;;;;;;;;;;;;;;;;;;;
2021/07/25 06:05:20;;;;;;;13.32;7.85;;;18.10;99.90;;;;;;5099471;28;20040;-93
2021/07/25 06:09:08;;;;;;;11.02;7.47;;;18.30;99.90;;;;;;5026702;28;20444;-92
2021/07/25 06:16:57;;;;;;;;;;;;;;;;;;;;;
2021/07/25 06:47:48;;;;;;;;;;;;;;;;;;;;;
2021/07/25 06:51:21;;;;;;;8.27;4.60;;;20.00;99.90;;;;;;6090090;23;20030;-91
2021/07/25 06:54:12;;;;;;;7.07;5.22;;;20.50;99.90;;;;;;6102966;23;20409;-90
2021/07/25 06:57:20;;;;;;;6.00;4.07;;;20.90;99.90;;;;;;6102884;23;20133;-90
2021/07/25 07:00:36;;;;;;;6.10;4.30;;;21.30;99.90;;;;;;6111137;23;20052;-91
2021/07/25 07:03:53;;;;;;;;;;;;;;;;;;;;;
2021/07/25 07:07:11;;;;;;;6.93;4.28;;;21.60;99.90;;;;;;6116449;23;20026;-90
2021/07/25 07:10:32;;;;;;;;;;;;;;;;;;;;;
2021/07/25 07:13:38;;;;;;;5.90;4.47;;;21.40;99.90;;;;;;6154224;23;20101;-89
2021/07/25 07:16:59;;;;;;;5.90;3.85;;;21.80;99.90;;;;;;6066705;23;20305;-91
2021/07/25 07:19:48;;;;;;;6.10;4.75;;;21.80;99.90;;;;;;6127067;23;20089;-91
2021/07/25 07:22:40;;;;;;;6.93;4.10;;;21.70;99.90;;;;;;6148530;23;20022;-90
2021/07/25 07:25:59;;;;;;;7.38;4.50;;;21.80;99.90;;;;;;6090090;23;20030;-89
2021/07/25 07:28:48;;;;;;;6.32;4.65;;;21.70;99.90;;;;;;6071727;23;20027;-88
2021/07/25 07:31:35;;;;;;;7.15;5.95;;;21.20;99.90;;;;;;6084938;23;20030;-89
2021/07/25 07:34:25;;;;;;;6.78;5.50;;;21.10;99.90;;;;;;6058789;23;20037;-89
2021/07/25 07:37:16;;;;;;;5.75;4.93;;;21.10;99.90;;;;;;6056022;23;20019;-91
2021/07/25 07:40:06;;;;;;;6.72;5.18;;;21.20;99.90;;;;;;6060465;23;20022;-89
2021/07/25 07:42:55;;;;;;;5.28;4.78;;;21.30;99.90;;;;;;6053196;23;20045;-89
2021/07/25 07:45:43;;;;;;;5.78;4.40;;;21.60;99.90;;;;;;6109987;23;20030;-90
2021/07/25 07:48:31;;;;;;;6.47;4.75;;;21.80;99.90;;;;;;6103845;23;20030;-89
2021/07/25 07:51:18;;;;;;;4.55;4.00;;;22.10;99.90;;;;;;6123086;23;20039;-91
2021/07/25 07:54:07;;;;;;;5.93;3.80;;;22.50;99.90;;;;;;6104832;23;20044;-89
2021/07/25 07:57:03;;;;;;;4.88;4.22;;;22.90;99.90;;;;;;6167072;23;20043;-91
2021/07/25 07:59:51;;;;;;;7.43;5.30;;;23.10;99.90;;;;;;6165298;23;20029;-90
2021/07/25 08:02:39;;;;;;;5.47;4.30;;;22.70;99.90;;;;;;6166815;23;20025;-89
2021/07/25 08:05:47;;;;;;;5.50;4.85;;;22.40;99.90;;;;;;6166562;23;20033;-90
2021/07/25 08:08:48;;;;;;;8.38;5.32;;;21.80;99.90;;;;;;6111082;23;20278;-89
2021/07/25 08:11:43;;;;;;;9.23;5.28;;;21.20;99.90;;;;;;6124817;23;20058;-90
2021/07/25 08:14:30;;;;;;;7.28;5.20;;;21.00;99.90;;;;;;6107019;23;20030;-90
2021/07/25 08:17:21;;;;;;;8.82;5.75;;;20.80;99.90;;;;;;6125789;23;20105;-90
2021/07/25 08:20:15;;;;;;;10.95;5.85;;;20.40;99.90;;;;;;6105915;23;20026;-90
2021/07/25 08:23:05;;;;;;;8.23;6.07;;;20.30;99.90;;;;;;6104227;23;20022;-91
2021/07/25 08:25:52;;;;;;;10.35;6.70;;;20.10;99.90;;;;;;6084913;23;20033;-89
2021/07/25 08:28:40;;;;;;;9.07;6.68;;;20.00;99.90;;;;;;6107475;23;20057;-89
2021/07/25 08:31:37;;;;;;;;;;;;;;;;;;;;;
2021/07/25 08:34:29;;;;;;;9.75;7.78;;;19.70;99.90;;;;;;6133081;23;20037;-89
2021/07/25 08:37:19;;;;;;;13.32;7.50;;;19.70;99.90;;;;;;6134996;23;20026;-89
2021/07/25 08:40:07;;;;;;;8.10;7.07;;;19.70;99.90;;;;;;6157344;23;20025;-90
2021/07/25 08:43:12;;;;;;;8.75;7.25;;;19.70;99.90;;;;;;6203935;23;20089;-90
2021/07/25 08:46:01;;;;;;;10.50;7.85;;;19.60;99.90;;;;;;6182478;23;20087;-89
2021/07/25 08:48:52;;;;;;;12.00;6.72;;;19.60;99.90;;;;;;6198789;23;20039;-89
2021/07/25 08:51:49;;;;;;;13.50;7.07;;;19.60;99.90;;;;;;6170717;23;20079;-89
2021/07/25 08:54:38;;;;;;;10.48;6.25;;;19.50;99.90;;;;;;6191986;23;20053;-89
2021/07/25 08:57:28;;;;;;;9.18;6.18;;;19.50;99.90;;;;;;6171547;23;20036;-90
2021/07/25 09:00:18;;;;;;;8.00;5.85;;;19.50;99.90;;;;;;6189886;23;20033;-91
2021/07/25 09:03:19;;;;;;;5.72;4.75;;;19.60;99.90;;;;;;6192645;23;20025;-92
2021/07/25 09:06:08;;;;;;;7.63;5.90;;;19.80;99.90;;;;;;6189643;23;20024;-92
2021/07/25 09:09:01;;;;;;;6.77;5.17;;;20.00;99.90;;;;;;6186382;23;20040;-90
2021/07/25 09:11:49;;;;;;;10.82;5.65;;;20.10;99.90;;;;;;6163939;23;20029;-91
2021/07/25 09:14:46;;;;;;;4.85;4.35;;;20.20;99.90;;;;;;6185866;23;20087;-91
2021/07/25 09:17:37;;;;;;;8.32;5.47;;;20.40;99.90;;;;;;6184990;23;20044;-90
2021/07/25 09:20:36;;;;;;;5.07;4.38;;;20.40;99.90;;;;;;6166568;23;20132;-89
2021/07/25 09:23:25;;;;;;;8.73;5.32;;;20.30;99.90;;;;;;6185265;23;20025;-89
2021/07/25 09:26:13;;;;;;;9.75;6.93;;;20.10;99.90;;;;;;6163907;23;20070;-90
2021/07/25 09:29:17;;;;;;;13.35;7.00;;;19.90;99.90;;;;;;6186217;23;20059;-90
2021/07/25 09:32:18;;;;;;;8.23;7.35;;;19.70;99.90;;;;;;6187102;23;20040;-91
2021/07/25 09:35:22;;;;;;;9.73;6.57;;;19.60;99.90;;;;;;6164147;23;20068;-90
2021/07/25 09:38:10;;;;;;;9.30;6.30;;;19.40;99.90;;;;;;6185578;23;20025;-91
2021/07/25 09:41:00;;;;;;;7.65;6.38;;;19.10;99.90;;;;;;6185200;23;20035;-91
2021/07/25 09:44:18;;;;;;;10.20;7.03;;;18.90;99.90;;;;;;6201155;23;20064;-91
2021/07/25 09:47:06;;;;;;;10.52;7.75;;;18.50;99.90;;;;;;6186596;23;20029;-93
2021/07/25 09:49:55;;;;;;;15.40;10.35;;;18.40;99.90;;;;;;6187341;23;20432;-89
2021/07/25 09:52:44;;;;;;;14.05;10.15;;;18.30;99.90;;;;;;6187737;23;20029;-91
2021/07/25 09:55:52;;;;;;;15.05;12.25;;;18.20;99.90;;;;;;6186993;23;20029;-91
2021/07/25 09:59:44;;;;;;;21.80;12.43;;;18.20;99.90;;;;;;6187311;23;20040;-92
2021/07/25 10:03:42;;;;;;;;;;;;;;;;;;;;;
2021/07/25 10:07:34;;;;;;;;;;;;;;;;;;;;;
2021/07/25 10:11:32;;;;;;;22.73;15.32;;;17.90;99.90;;;;;;5958800;24;20104;-93
2021/07/25 10:22:29;;;;;;;18.48;14.00;;;18.00;99.90;;;;;;5971836;23;20044;-91
2021/07/25 10:25:17;;;;;;;19.55;15.15;;;18.00;99.90;;;;;;5973171;24;20027;-90
2021/07/25 10:28:06;;;;;;;18.38;14.77;;;18.00;99.90;;;;;;6017970;23;20033;-93
2021/07/25 10:35:18;;;;;;;17.63;13.95;;;18.10;99.90;;;;;;6096274;23;20090;-91
2021/07/25 10:38:36;;;;;;;16.58;12.48;;;18.20;99.90;;;;;;6186843;23;20031;-92
2021/07/25 10:49:43;;;;;;;20.10;14.73;;;18.30;99.90;;;;;;6122896;23;20377;-89
2021/07/25 10:53:45;;;;;;;16.35;12.65;;;18.40;99.90;;;;;;6157487;23;20057;-92
2021/07/25 10:57:11;;;;;;;16.73;13.25;;;18.40;99.90;;;;;;6038863;23;20438;-90
2021/07/25 11:00:12;;;;;;;21.00;13.05;;;18.40;99.90;;;;;;6033332;23;20117;-93
2021/07/25 11:03:03;;;;;;;16.38;12.93;;;18.40;99.90;;;;;;6076337;23;20097;-93
2021/07/25 11:06:06;;;;;;;20.83;14.30;;;18.40;99.90;;;;;;6096593;23;20046;-92
2021/07/25 11:08:54;;;;;;;18.70;13.60;;;18.30;99.90;;;;;;6095780;23;20127;-91
2021/07/25 11:11:50;;;;;;;16.80;13.55;;;18.20;99.90;;;;;;6097426;23;20026;-94
2021/07/25 11:15:02;;;;;;;17.63;14.60;;;18.20;99.90;;;;;;6080152;23;20479;-92
2021/07/25 11:17:53;;;;;;;23.67;14.55;;;18.20;99.90;;;;;;6076154;23;20456;-92
2021/07/25 11:21:00;;;;;;;21.65;15.85;;;18.10;99.90;;;;;;6094499;23;20078;-93
2021/07/25 11:23:56;;;;;;;21.98;15.95;;;18.10;99.90;;;;;;6096867;23;20057;-92
2021/07/25 11:27:08;;;;;;;22.20;17.17;;;18.10;99.90;;;;;;6086643;23;20037;-92
2021/07/25 11:30:15;;;;;;;17.20;12.43;;;18.10;99.90;;;;;;6079232;23;20029;-92
2021/07/25 11:33:48;;;;;;;14.30;11.57;;;18.00;99.90;;;;;;6138443;23;20053;-93
2021/07/25 11:37:13;;;;;;;16.10;11.38;;;17.80;99.90;;;;;;6155237;23;20112;-90
2021/07/25 11:40:38;;;;;;;18.33;13.57;;;17.80;99.90;;;;;;6140871;23;20069;-90
2021/07/25 11:44:27;;;;;;;18.20;12.60;;;17.80;99.90;;;;;;6156760;23;20064;-92
2021/07/25 11:47:33;;;;;;;14.95;11.45;;;17.80;99.90;;;;;;6175818;23;20160;-90
2021/07/25 11:51:08;;;;;;;16.50;12.23;;;17.70;99.90;;;;;;6186432;23;20029;-92
2021/07/25 11:53:56;;;;;;;18.08;13.43;;;17.70;99.90;;;;;;6047733;23;20782;-91
2021/07/25 11:56:56;;;;;;;24.08;17.75;;;17.60;99.90;;;;;;6048489;23;20129;-92
2021/07/25 11:59:53;;;;;;;20.98;14.77;;;17.60;99.90;;;;;;6190046;23;20025;-91
2021/07/25 12:26:20;;;;;;;16.25;13.38;;;18.30;99.90;;;;;;6157819;23;20025;-90
2021/07/25 12:29:53;;;;;;;12.45;9.50;;;18.40;99.90;;;;;;6157693;23;20051;-92
2021/07/25 12:32:47;;;;;;;12.00;10.27;;;18.40;99.90;;;;;;6157117;23;20084;-92
2021/07/25 12:35:55;;;;;;;10.98;9.85;;;18.60;99.90;;;;;;6102014;23;20026;-90
2021/07/25 12:38:51;;;;;;;10.10;8.23;;;18.90;99.90;;;;;;6156034;23;20036;-93
2021/07/25 12:41:53;;;;;;;9.63;7.32;;;19.20;99.90;;;;;;6156386;23;20021;-90
2021/07/25 12:44:51;;;;;;;11.73;7.53;;;19.60;99.90;;;;;;6156977;23;20029;-93
2021/07/25 12:47:43;;;;;;;8.55;6.70;;;20.20;99.90;;;;;;6152490;23;20041;-90
2021/07/25 12:54:33;;;;;;;;;;;;;;;;;;;;;
2021/07/25 12:57:52;;;;;;;8.35;6.50;;;21.30;99.90;;;;;;6111273;23;20429;-92
2021/07/25 13:03:52;;;;;;;8.68;6.20;;;21.10;99.90;;;;;;6158812;23;20026;-90
2021/07/25 13:06:53;;;;;;;10.90;6.93;;;21.00;99.90;;;;;;6155600;23;20029;-91
2021/07/25 13:09:41;;;;;;;7.20;6.43;;;20.70;99.90;;;;;;6157545;23;20061;-90
2021/07/25 13:13:19;;;;;;;9.20;6.72;;;20.50;99.90;;;;;;6155909;23;20033;-92
2021/07/25 13:20:13;;;;;;;7.05;6.00;;;20.70;99.90;;;;;;6152460;23;20024;-93
2021/07/25 13:32:00;;;;;;;8.23;6.07;;;20.60;99.90;;;;;;6095357;23;20109;-91
2021/07/25 13:39:46;;;;;;;;;;;;;;;;;;;;;
2021/07/25 13:47:16;;;;;;;;;;;20.20;99.90;;;;;;6130603;23;20029;-94
2021/07/25 14:11:47;;;;;;;5.97;5.05;;;20.10;99.90;;;;;;6125010;23;20029;-93
2021/07/25 14:43:11;;;;;;;;;;;;;;;;;;;;;
2021/07/25 14:55:43;;;;;;;4.63;3.70;;;25.00;99.90;;;;;;6118030;23;20049;-88
2021/07/25 14:58:32;;;;;;;4.60;3.35;;;25.10;99.90;;;;;;6135744;23;20421;-89
2021/07/25 15:01:19;;;;;;;3.10;2.80;;;25.40;99.90;;;;;;6152613;23;20021;-86
2021/07/25 15:04:08;;;;;;;3.83;2.78;;;25.20;98.90;;;;;;6153845;23;20424;-88
2021/07/25 15:06:56;;;;;;;4.03;2.58;;;25.00;99.90;;;;;;6154184;23;20096;-88
2021/07/25 15:09:46;;;;;;;3.28;2.90;;;24.50;99.90;;;;;;6133113;23;20037;-90
2021/07/25 15:12:33;;;;;;;4.13;2.75;;;24.80;99.80;;;;;;6134083;23;20147;-90
2021/07/25 15:15:23;;;;;;;3.50;2.75;;;25.80;97.50;;;;;;6154390;23;20033;-90
2021/07/25 15:18:30;;;;;;;5.13;2.72;;;25.60;95.70;;;;;;6136123;23;20025;-91
2021/07/25 15:21:34;;;;;;;4.07;3.22;;;24.30;98.50;;;;;;6144117;23;20036;-89
2021/07/25 15:24:45;;;;;;;3.13;2.70;;;22.90;99.90;;;;;;6142380;23;20085;-89
2021/07/25 15:27:34;;;;;;;3.10;2.83;;;23.20;99.90;;;;;;6155940;23;20063;-90
2021/07/25 15:30:37;;;;;;;3.78;2.47;;;23.60;99.90;;;;;;6154630;23;20029;-91
2021/07/25 15:33:24;;;;;;;4.32;2.70;;;24.40;98.60;;;;;;6154715;23;20029;-88
2021/07/25 15:36:14;;;;;;;4.47;2.42;;;25.40;96.60;;;;;;6152911;23;20595;-90
2021/07/25 15:39:04;;;;;;;4.80;2.53;;;25.90;93.90;;;;;;6154415;23;20036;-89
2021/07/25 15:41:52;;;;;;;3.83;2.65;;;25.90;92.50;;;;;;6155420;23;20030;-90
2021/07/25 15:44:41;;;;;;;2.53;2.33;;;25.40;92.90;;;;;;6155106;23;20033;-90
2021/07/25 15:47:28;;;;;;;3.33;2.58;;;25.20;92.00;;;;;;6153847;23;20040;-87
2021/07/25 15:50:15;;;;;;;4.78;2.95;;;24.70;94.10;;;;;;6156665;23;20044;-89
2021/07/25 15:53:03;;;;;;;8.55;3.20;;;24.50;94.30;;;;;;6155673;23;20040;-90
2021/07/25 15:55:52;;;;;;;4.93;3.10;;;24.40;94.90;;;;;;6135862;23;20033;-89
2021/07/25 15:58:40;;;;;;;2.95;2.33;;;24.10;95.20;;;;;;6155174;23;20021;-90
2021/07/25 16:01:29;;;;;;;3.95;2.75;;;24.00;96.70;;;;;;6152225;23;20033;-89
2021/07/25 16:04:18;;;;;;;4.13;2.63;;;24.20;97.10;;;;;;6154088;23;20451;-89
2021/07/25 16:07:06;;;;;;;4.22;2.60;;;24.00;96.80;;;;;;6153965;23;20026;-90
2021/07/25 16:09:54;;;;;;;4.13;2.67;;;23.60;98.10;;;;;;6134460;23;20084;-89
2021/07/25 16:12:41;;;;;;;4.07;3.00;;;22.60;99.90;;;;;;6154651;23;20034;-86
2021/07/25 16:15:31;;;;;;;6.72;4.85;;;22.00;99.90;;;;;;6154716;23;20082;-85
2021/07/25 16:18:20;;;;;;;3.22;2.83;;;21.80;99.90;;;;;;6155033;23;20291;-85
2021/07/25 16:21:07;;;;;;;4.63;3.20;;;21.70;99.90;;;;;;6151975;23;20441;-86
2021/07/25 16:23:56;;;;;;;6.75;3.35;;;21.90;99.90;;;;;;6155128;23;20021;-87
2021/07/25 16:26:43;;;;;;;4.25;3.00;;;21.90;99.90;;;;;;6151356;23;20030;-88
2021/07/25 16:29:34;;;;;;;5.25;2.92;;;22.10;99.90;;;;;;6153451;23;20025;-92
2021/07/25 16:32:22;;;;;;;4.35;3.15;;;22.20;99.90;;;;;;6154456;23;20026;-90
2021/07/25 16:35:09;;;;;;;4.78;3.70;;;22.20;99.90;;;;;;6154249;23;20054;-85
2021/07/25 16:37:59;;;;;;;3.65;2.85;;;22.10;99.90;;;;;;6153354;23;20503;-89
2021/07/25 16:40:46;;;;;;;4.00;3.33;;;22.30;99.90;;;;;;6154200;23;20021;-88
2021/07/25 16:43:34;;;;;;;5.03;3.22;;;22.20;99.90;;;;;;6154633;23;20057;-89
2021/07/25 16:46:24;;;;;;;4.10;3.45;;;22.00;99.90;;;;;;6154809;23;20372;-91
2021/07/25 16:49:12;;;;;;;7.72;3.33;;;21.70;99.90;;;;;;6152565;23;20432;-90
2021/07/25 16:51:59;;;;;;;36.40;22.13;;;21.50;99.90;;;;;;6157282;23;20092;-89
2021/07/25 16:54:46;;;;;;;5.28;3.97;;;21.60;99.90;;;;;;6140071;22;20029;-89
2021/07/25 17:24:49;;;;;;;4.25;3.60;;;21.10;99.90;;;;;;6046629;23;20019;-87
2021/07/25 17:27:55;;;;;;;7.00;3.38;;;21.30;99.90;;;;;;6044646;23;20043;-88
2021/07/25 17:30:42;;;;;;;3.83;3.40;;;21.30;99.90;;;;;;6048494;23;20031;-88
2021/07/25 18:01:05;;;;;;;5.32;3.50;;;21.00;99.90;;;;;;6188071;23;20381;-90
2021/07/25 18:25:16;;;;;;;4.03;3.63;;;20.30;99.90;;;;;;6184970;23;20032;-88
2021/07/25 18:28:26;;;;;;;4.88;3.90;;;20.20;99.90;;;;;;6049493;23;20105;-88
2021/07/25 18:31:16;;;;;;;5.55;4.28;;;20.00;99.90;;;;;;6029634;23;20031;-89
2021/07/25 18:34:14;;;;;;;6.78;4.50;;;19.80;99.90;;;;;;6053436;23;20090;-91
2021/07/25 18:37:01;;;;;;;8.77;4.30;;;19.70;99.90;;;;;;6065508;23;20031;-89
2021/07/25 18:39:51;;;;;;;5.93;4.78;;;19.60;99.90;;;;;;6048098;23;20030;-91
2021/07/25 18:42:39;;;;;;;6.05;4.40;;;19.40;99.90;;;;;;6048357;23;20026;-86
2021/07/25 18:45:28;;;;;;;7.40;4.18;;;19.40;99.90;;;;;;6105696;23;20321;-86
2021/07/25 18:48:15;;;;;;;4.78;3.90;;;19.30;99.90;;;;;;6185671;23;20124;-89
2021/07/25 18:51:04;;;;;;;4.88;4.38;;;19.40;99.90;;;;;;6148825;23;20025;-90
2021/07/25 18:53:51;;;;;;;4.35;3.70;;;19.20;99.90;;;;;;6164339;23;20029;-89
2021/07/25 18:56:57;;;;;;;4.72;3.80;;;19.10;99.90;;;;;;6184725;23;20039;-91
2021/07/25 18:59:49;;;;;;;5.45;4.45;;;19.10;99.90;;;;;;6164231;23;20563;-90
2021/07/25 19:02:36;;;;;;;5.93;4.67;;;18.90;99.90;;;;;;6166280;23;20032;-88
2021/07/25 19:05:23;;;;;;;7.75;4.55;;;18.80;99.90;;;;;;6186323;23;20025;-91
2021/07/25 19:08:11;;;;;;;6.30;4.82;;;18.60;99.90;;;;;;6164392;23;20056;-88
2021/07/25 19:10:58;;;;;;;7.68;4.60;;;18.50;99.90;;;;;;6166290;23;20040;-88
2021/07/25 19:13:45;;;;;;;5.95;4.72;;;18.40;99.90;;;;;;6187490;23;20029;-88
2021/07/25 19:16:38;;;;;;;6.28;4.57;;;18.20;99.90;;;;;;6189915;23;20036;-89
2021/07/25 19:19:27;;;;;;;5.30;4.80;;;18.10;99.90;;;;;;6190306;23;20021;-89
2021/07/25 19:22:16;;;;;;;7.07;4.60;;;18.00;99.90;;;;;;6183339;23;20021;-89
2021/07/25 19:25:06;;;;;;;7.03;4.55;;;18.00;99.90;;;;;;6161729;23;20024;-89
2021/07/25 19:27:53;;;;;;;14.35;9.30;;;18.10;99.90;;;;;;6183747;23;20088;-88
2021/07/25 19:30:41;;;;;;;7.18;5.85;;;18.00;99.90;;;;;;6180882;23;20313;-87
2021/07/25 19:33:28;;;;;;;9.90;5.60;;;18.00;99.90;;;;;;6160150;23;20029;-89
2021/07/25 19:36:15;;;;;;;6.43;5.35;;;17.90;99.90;;;;;;6161220;23;20025;-88
2021/07/25 19:39:23;;;;;;;8.10;5.47;;;17.80;99.90;;;;;;6183815;23;20127;-89
2021/07/25 19:42:11;;;;;;;11.77;6.93;;;17.90;99.90;;;;;;6182193;23;20044;-88
2021/07/25 19:44:59;;;;;;;6.57;5.50;;;17.90;99.90;;;;;;6162520;23;20024;-89
2021/07/25 19:47:46;;;;;;;6.40;5.57;;;18.00;99.90;;;;;;6184898;23;20025;-89
2021/07/25 19:50:33;;;;;;;7.85;5.78;;;18.10;99.90;;;;;;6141579;23;20025;-89
2021/07/25 19:53:21;;;;;;;9.40;5.45;;;18.20;99.90;;;;;;6185616;23;20270;-88
2021/07/25 19:56:10;;;;;;;10.20;5.80;;;18.40;99.90;;;;;;6153516;23;20053;-88
2021/07/25 19:58:57;;;;;;;7.53;5.93;;;18.50;99.90;;;;;;6151542;23;20025;-87
2021/07/25 20:01:53;;;;;;;10.35;5.03;;;18.50;99.90;;;;;;6153836;23;20052;-88
2021/07/25 20:04:40;;;;;;;9.90;5.93;;;18.60;99.90;;;;;;6154295;23;20408;-88
2021/07/25 20:07:47;;;;;;;6.85;5.53;;;18.60;99.90;;;;;;6153175;23;20029;-89
2021/07/25 20:10:35;;;;;;;11.43;5.95;;;18.60;99.90;;;;;;6154639;23;20104;-88
2021/07/25 20:13:25;;;;;;;6.97;6.03;;;18.60;99.90;;;;;;6155229;23;20512;-87
2021/07/25 20:16:13;;;;;;;8.55;5.50;;;18.60;99.90;;;;;;6155045;23;20326;-88
2021/07/25 20:19:03;;;;;;;8.25;5.65;;;18.60;99.90;;;;;;6153462;23;20100;-87
2021/07/25 20:21:50;;;;;;;8.07;5.57;;;18.50;99.90;;;;;;6154882;23;20449;-88